Terminal Aerodrome Forecast
Issued by NWS

Home | Current Version | Previous Version | Text Only | Print | Product List | Glossary On
Versions: 1 2 3 4 5 6 7 8 9 10 11 12 13 14 15
000
FTUS43 KDTX 221700
TAFMBS
TAF
KMBS 221728Z 2218/2318 23013G20KT P6SM SCT050 SCT080
     FM230100 24012KT P6SM SCT060 BKN100 PROB30 2303/2305 TSRA
      BKN035 OVC060CB
     FM230800 32012KT P6SM OVC020
     FM231600 35010KT P6SM OVC040=

USA.gov is the U.S. government's official web portal to all federal, state and local government web resources and services.